createdAt,value
2022-07-25T00:00:19.981Z,28.01
2022-07-25T00:00:51.621Z,28.00
2022-07-25T00:01:23.123Z,28.02
2022-07-25T00:01:55.108Z,27.99
2022-07-25T00:02:28.366Z,27.99
2022-07-25T00:02:59.798Z,27.99
2022-07-25T00:03:31.668Z,27.99
2022-07-25T00:04:03.479Z,27.98
2022-07-25T00:04:35.087Z,27.98
2022-07-25T00:05:07.300Z,27.98
2022-07-25T00:05:38.728Z,27.97
2022-07-25T00:06:13.457Z,27.97
2022-07-25T00:06:49.027Z,27.97
2022-07-25T00:07:20.457Z,27.96
2022-07-25T00:07:51.894Z,27.97
2022-07-25T00:08:23.333Z,27.96
2022-07-25T00:08:54.760Z,27.96
2022-07-25T00:09:26.192Z,27.96
2022-07-25T00:09:57.638Z,27.96
2022-07-25T00:10:29.073Z,27.96
2022-07-25T00:11:00.504Z,27.95
2022-07-25T00:11:31.965Z,27.95
2022-07-25T00:12:03.397Z,27.94
2022-07-25T00:12:37.338Z,27.94
2022-07-25T00:13:08.772Z,27.96
2022-07-25T00:13:40.203Z,27.95
2022-07-25T00:14:11.644Z,27.94
2022-07-25T00:14:43.081Z,27.95
2022-07-25T00:15:14.518Z,27.95
2022-07-25T00:15:45.980Z,27.95
2022-07-25T00:16:17.586Z,27.95
2022-07-25T00:16:49.119Z,27.94
2022-07-25T00:17:20.544Z,27.95
2022-07-25T00:17:51.963Z,27.95
2022-07-25T00:18:23.421Z,27.94
2022-07-25T00:18:54.860Z,27.93
2022-07-25T00:19:26.288Z,27.93
2022-07-25T00:19:57.719Z,27.93
2022-07-25T00:20:29.218Z,27.93
2022-07-25T00:21:00.653Z,27.94
2022-07-25T00:21:32.180Z,27.92
2022-07-25T00:22:03.618Z,27.94
2022-07-25T00:22:35.056Z,27.93
2022-07-25T00:23:06.485Z,27.91
2022-07-25T00:23:37.914Z,27.90
2022-07-25T00:24:09.921Z,27.91
2022-07-25T00:24:41.592Z,27.91
2022-07-25T00:25:13.016Z,27.91
2022-07-25T00:25:44.451Z,27.91
2022-07-25T00:26:15.896Z,27.92
2022-07-25T00:26:47.381Z,27.90
2022-07-25T00:27:18.816Z,27.90
2022-07-25T00:27:50.258Z,27.90
2022-07-25T00:28:21.691Z,27.88
2022-07-25T00:28:53.130Z,27.88
2022-07-25T00:29:24.567Z,27.89
2022-07-25T00:29:55.997Z,27.88
2022-07-25T00:30:27.430Z,27.89
2022-07-25T00:30:58.928Z,27.88
2022-07-25T00:31:30.482Z,27.86
2022-07-25T00:32:02.041Z,27.87
2022-07-25T00:32:33.475Z,27.87
2022-07-25T00:33:04.973Z,27.86
2022-07-25T00:33:36.413Z,27.87
2022-07-25T00:34:08.258Z,27.87
2022-07-25T00:34:39.944Z,27.85
2022-07-25T00:35:11.370Z,27.87
2022-07-25T00:35:42.793Z,27.87
2022-07-25T00:36:14.224Z,27.86
2022-07-25T00:36:45.652Z,27.85
2022-07-25T00:37:17.133Z,27.85
2022-07-25T00:37:48.578Z,27.85
2022-07-25T00:38:20.009Z,27.85
2022-07-25T00:38:53.844Z,27.84
2022-07-25T00:39:25.268Z,27.85
2022-07-25T00:39:56.712Z,27.84
2022-07-25T00:40:28.148Z,27.84
2022-07-25T00:40:59.583Z,27.83
2022-07-25T00:41:31.014Z,27.83
2022-07-25T00:42:02.436Z,27.84
2022-07-25T00:42:33.959Z,27.83
2022-07-25T00:43:05.396Z,27.83
2022-07-25T00:43:36.829Z,27.83
2022-07-25T00:44:08.802Z,27.82
2022-07-25T00:44:40.482Z,27.83
2022-07-25T00:45:11.912Z,27.82
2022-07-25T00:45:43.337Z,27.82
2022-07-25T00:46:14.877Z,27.82
2022-07-25T00:46:50.548Z,27.81
2022-07-25T00:47:22.213Z,27.81
2022-07-25T00:47:53.645Z,27.82
2022-07-25T00:48:25.084Z,27.81
2022-07-25T00:48:56.637Z,27.81
2022-07-25T00:49:28.120Z,27.81
2022-07-25T00:49:59.552Z,27.81
2022-07-25T00:50:30.991Z,27.80
2022-07-25T00:51:02.435Z,27.80
2022-07-25T00:51:33.870Z,27.80
2022-07-25T00:52:05.296Z,27.80
2022-07-25T00:52:36.769Z,27.80
2022-07-25T00:53:08.193Z,27.79
2022-07-25T00:53:39.625Z,27.80
2022-07-25T00:54:11.058Z,27.81
2022-07-25T00:54:42.493Z,27.80
2022-07-25T00:55:16.453Z,27.80
2022-07-25T00:55:47.887Z,27.79
2022-07-25T00:56:19.334Z,27.78
2022-07-25T00:56:50.777Z,27.77
2022-07-25T00:57:22.216Z,27.77
2022-07-25T00:57:53.661Z,27.77
2022-07-25T00:58:25.080Z,27.76
2022-07-25T00:58:56.514Z,27.76
2022-07-25T00:59:27.937Z,27.77
2022-07-25T00:59:59.360Z,27.76
2022-07-25T01:00:30.804Z,27.75
2022-07-25T01:01:02.231Z,27.76
2022-07-25T01:01:33.710Z,27.76
2022-07-25T01:02:05.258Z,27.75
2022-07-25T01:02:36.742Z,27.76
2022-07-25T01:03:08.326Z,27.75
2022-07-25T01:03:39.785Z,27.75
2022-07-25T01:04:11.221Z,27.75
2022-07-25T01:04:42.652Z,27.75
2022-07-25T01:05:14.081Z,27.74
2022-07-25T01:05:48.989Z,27.74
2022-07-25T01:06:24.749Z,27.73
2022-07-25T01:06:56.357Z,27.75
2022-07-25T01:07:27.789Z,27.74
2022-07-25T01:07:59.221Z,27.74
2022-07-25T01:08:30.733Z,27.73
2022-07-25T01:09:02.164Z,27.72
2022-07-25T01:09:33.661Z,27.75
2022-07-25T01:10:05.084Z,27.71
2022-07-25T01:10:36.508Z,27.72
2022-07-25T01:11:07.941Z,27.71
2022-07-25T01:11:39.378Z,27.72
2022-07-25T01:12:10.826Z,27.71
2022-07-25T01:12:42.263Z,27.71
2022-07-25T01:13:13.697Z,27.71
2022-07-25T01:13:45.144Z,27.70
2022-07-25T01:14:16.586Z,27.69
2022-07-25T01:14:48.076Z,27.70
2022-07-25T01:15:19.497Z,27.70
2022-07-25T01:15:50.993Z,27.69
2022-07-25T01:16:22.517Z,27.70
2022-07-25T01:16:53.965Z,27.69
2022-07-25T01:17:25.390Z,27.69
2022-07-25T01:17:56.823Z,27.69
2022-07-25T01:18:28.292Z,27.68
2022-07-25T01:18:59.741Z,27.68
2022-07-25T01:19:31.169Z,27.68
2022-07-25T01:20:02.605Z,27.66
2022-07-25T01:20:34.036Z,27.68
2022-07-25T01:21:05.464Z,27.66
2022-07-25T01:21:36.897Z,27.67
2022-07-25T01:22:08.320Z,27.66
2022-07-25T01:22:39.743Z,27.67
2022-07-25T01:23:11.173Z,27.67
2022-07-25T01:23:42.705Z,27.67
2022-07-25T01:24:14.130Z,27.67
2022-07-25T01:24:45.565Z,27.66
2022-07-25T01:25:16.988Z,27.66
2022-07-25T01:25:48.424Z,27.65
2022-07-25T01:26:19.857Z,27.65
2022-07-25T01:26:51.285Z,27.65
2022-07-25T01:27:22.726Z,27.66
2022-07-25T01:27:55.923Z,27.67
2022-07-25T01:28:27.606Z,27.65
2022-07-25T01:28:59.067Z,27.64
2022-07-25T01:29:30.489Z,27.65
2022-07-25T01:30:01.913Z,27.64
2022-07-25T01:30:33.341Z,27.64
2022-07-25T01:31:04.959Z,27.64
2022-07-25T01:31:36.437Z,27.65
2022-07-25T01:32:07.937Z,27.63
2022-07-25T01:32:39.374Z,27.63
2022-07-25T01:33:10.805Z,27.63
2022-07-25T01:33:42.233Z,27.63
2022-07-25T01:34:13.801Z,27.64
2022-07-25T01:34:45.228Z,27.63
2022-07-25T01:35:16.665Z,27.63
2022-07-25T01:35:48.108Z,27.63
2022-07-25T01:36:19.539Z,27.62
2022-07-25T01:36:50.970Z,27.62
2022-07-25T01:37:22.401Z,27.62
2022-07-25T01:37:53.826Z,27.61
2022-07-25T01:38:25.260Z,27.60
2022-07-25T01:38:56.693Z,27.60
2022-07-25T01:39:28.162Z,27.61
2022-07-25T01:39:59.592Z,27.61
2022-07-25T01:40:31.026Z,27.60
2022-07-25T01:41:02.457Z,27.59
2022-07-25T01:41:33.896Z,27.61
2022-07-25T01:42:05.326Z,27.60
2022-07-25T01:42:36.751Z,27.59
2022-07-25T01:43:08.227Z,27.60
2022-07-25T01:43:39.660Z,27.59
2022-07-25T01:44:11.086Z,27.59
2022-07-25T01:44:42.530Z,27.60
2022-07-25T01:45:13.961Z,27.60
2022-07-25T01:45:45.388Z,27.59
2022-07-25T01:46:16.861Z,27.59
2022-07-25T01:46:48.439Z,27.58
2022-07-25T01:47:19.898Z,27.58
2022-07-25T01:47:51.331Z,27.58
2022-07-25T01:48:22.770Z,27.58
2022-07-25T01:48:54.250Z,27.58
2022-07-25T01:49:25.708Z,27.57
2022-07-25T01:49:57.200Z,27.58
2022-07-25T01:50:28.629Z,27.58
2022-07-25T01:51:00.058Z,27.57
2022-07-25T01:51:31.801Z,27.58
2022-07-25T01:52:03.228Z,27.58
2022-07-25T01:52:34.652Z,27.58
2022-07-25T01:53:06.091Z,27.58
2022-07-25T01:53:37.515Z,27.58
2022-07-25T01:54:10.500Z,27.57
2022-07-25T01:54:42.080Z,27.56
2022-07-25T01:55:15.052Z,27.57
2022-07-25T01:55:46.476Z,27.56
2022-07-25T01:56:18.070Z,27.56
2022-07-25T01:56:53.323Z,27.55
2022-07-25T01:57:30.098Z,27.54
2022-07-25T01:58:02.602Z,27.55
2022-07-25T01:58:34.399Z,27.54
2022-07-25T01:59:05.828Z,27.56
2022-07-25T01:59:37.251Z,27.55
2022-07-25T02:00:08.739Z,27.54
2022-07-25T02:00:40.260Z,27.54
2022-07-25T02:01:11.760Z,27.54
2022-07-25T02:01:43.396Z,27.54
2022-07-25T02:02:14.881Z,27.54
2022-07-25T02:02:46.316Z,27.54
2022-07-25T02:03:17.756Z,27.54
2022-07-25T02:03:49.182Z,27.54
2022-07-25T02:04:20.665Z,27.53
2022-07-25T02:04:52.281Z,27.53
2022-07-25T02:05:23.761Z,27.52
2022-07-25T02:05:55.187Z,27.53
2022-07-25T02:06:27.541Z,27.52
2022-07-25T02:06:58.986Z,27.52
2022-07-25T02:07:30.415Z,27.52
2022-07-25T02:08:01.853Z,27.51
2022-07-25T02:08:33.280Z,27.51
2022-07-25T02:09:04.715Z,27.52
2022-07-25T02:09:36.144Z,27.51
2022-07-25T02:10:07.684Z,27.49
2022-07-25T02:10:39.117Z,27.51
2022-07-25T02:11:10.554Z,27.49
2022-07-25T02:11:41.997Z,27.50
2022-07-25T02:12:13.429Z,27.49
2022-07-25T02:12:44.864Z,27.50
2022-07-25T02:13:16.305Z,27.49
2022-07-25T02:13:47.744Z,27.50
2022-07-25T02:14:19.180Z,27.49
2022-07-25T02:14:50.612Z,27.48
2022-07-25T02:15:22.065Z,27.51
2022-07-25T02:15:53.638Z,27.50
2022-07-25T02:16:29.108Z,27.49
2022-07-25T02:17:00.994Z,27.48
2022-07-25T02:17:32.448Z,27.48
2022-07-25T02:18:03.872Z,27.47
2022-07-25T02:18:35.309Z,27.47
2022-07-25T02:19:06.737Z,27.47
2022-07-25T02:19:38.165Z,27.47
2022-07-25T02:20:09.680Z,27.47
2022-07-25T02:20:41.112Z,27.47
2022-07-25T02:21:14.461Z,27.47
2022-07-25T02:21:46.138Z,27.46
2022-07-25T02:22:17.578Z,27.46
2022-07-25T02:22:49.014Z,27.46
2022-07-25T02:23:20.440Z,27.45
2022-07-25T02:23:51.870Z,27.46
2022-07-25T02:24:23.311Z,27.46
2022-07-25T02:24:54.785Z,27.46
2022-07-25T02:25:26.350Z,27.45
2022-07-25T02:25:57.784Z,27.45
2022-07-25T02:26:29.205Z,27.45
2022-07-25T02:27:00.628Z,27.45
2022-07-25T02:27:32.058Z,27.44
2022-07-25T02:28:03.490Z,27.44
2022-07-25T02:28:34.926Z,27.44
2022-07-25T02:29:06.351Z,27.43
2022-07-25T02:29:37.773Z,27.44
2022-07-25T02:30:09.201Z,27.44
2022-07-25T02:30:40.833Z,27.42
2022-07-25T02:31:12.378Z,27.42
2022-07-25T02:31:43.847Z,27.44
2022-07-25T02:32:15.294Z,27.44
2022-07-25T02:32:46.731Z,27.42
2022-07-25T02:33:18.171Z,27.42
2022-07-25T02:33:49.609Z,27.42
2022-07-25T02:34:21.072Z,27.42
2022-07-25T02:34:52.501Z,27.41
2022-07-25T02:35:23.934Z,27.41
2022-07-25T02:35:55.437Z,27.40
2022-07-25T02:36:26.866Z,27.40
2022-07-25T02:36:58.297Z,27.40
2022-07-25T02:37:29.728Z,27.41
2022-07-25T02:38:01.197Z,27.40
2022-07-25T02:38:32.642Z,27.40
2022-07-25T02:39:04.088Z,27.41
2022-07-25T02:39:35.521Z,27.40
2022-07-25T02:40:06.948Z,27.39
2022-07-25T02:40:38.377Z,27.39
2022-07-25T02:41:09.845Z,27.39
2022-07-25T02:41:41.277Z,27.39
2022-07-25T02:42:12.705Z,27.38
2022-07-25T02:42:44.145Z,27.39
2022-07-25T02:43:15.577Z,27.39
2022-07-25T02:43:47.124Z,27.39
2022-07-25T02:44:18.552Z,27.38
2022-07-25T02:44:50.028Z,27.37
2022-07-25T02:45:21.458Z,27.39
2022-07-25T02:45:53.000Z,27.38
2022-07-25T02:46:24.673Z,27.37
2022-07-25T02:46:56.148Z,27.37
2022-07-25T02:47:27.576Z,27.36
2022-07-25T02:47:59.010Z,27.36
2022-07-25T02:48:30.468Z,27.36
2022-07-25T02:49:02.057Z,27.36
2022-07-25T02:49:33.572Z,27.36
2022-07-25T02:50:05.000Z,27.36
2022-07-25T02:50:36.428Z,27.36
2022-07-25T02:51:07.864Z,27.36
2022-07-25T02:51:39.368Z,27.36
2022-07-25T02:52:10.799Z,27.36
2022-07-25T02:52:42.228Z,27.36
2022-07-25T02:53:13.657Z,27.36
2022-07-25T02:53:57.179Z,27.36
2022-07-25T02:54:29.440Z,27.36
2022-07-25T02:55:02.209Z,27.35
2022-07-25T02:55:35.296Z,27.36
2022-07-25T02:56:06.719Z,27.34
2022-07-25T02:56:38.174Z,27.35
2022-07-25T02:57:09.619Z,27.35
2022-07-25T02:57:41.048Z,27.35
2022-07-25T02:58:12.477Z,27.34
2022-07-25T02:58:43.908Z,27.34
2022-07-25T02:59:15.334Z,27.34
2022-07-25T02:59:46.764Z,27.34
2022-07-25T03:00:18.209Z,27.34
2022-07-25T03:00:49.659Z,27.34
2022-07-25T03:01:21.265Z,27.33
2022-07-25T03:01:52.875Z,27.33
2022-07-25T03:02:26.227Z,27.32
2022-07-25T03:02:57.653Z,27.32
2022-07-25T03:03:29.081Z,27.31
2022-07-25T03:04:00.586Z,27.32
2022-07-25T03:04:32.132Z,27.31
2022-07-25T03:05:03.608Z,27.32
2022-07-25T03:05:35.029Z,27.32
2022-07-25T03:06:06.462Z,27.31
2022-07-25T03:06:37.930Z,27.31
2022-07-25T03:07:09.459Z,27.31
2022-07-25T03:07:40.884Z,27.31
2022-07-25T03:08:12.313Z,27.30
2022-07-25T03:08:43.747Z,27.32
2022-07-25T03:09:15.184Z,27.31
2022-07-25T03:09:46.618Z,27.31
2022-07-25T03:10:18.059Z,27.30
2022-07-25T03:10:49.492Z,27.30
2022-07-25T03:11:20.923Z,27.29
2022-07-25T03:11:52.343Z,27.30
2022-07-25T03:12:23.834Z,27.29
2022-07-25T03:12:55.268Z,27.29
2022-07-25T03:13:26.693Z,27.31
2022-07-25T03:13:58.129Z,27.29
2022-07-25T03:14:29.563Z,27.29
2022-07-25T03:15:01.013Z,27.28
2022-07-25T03:15:32.445Z,27.29
2022-07-25T03:16:03.932Z,27.28
2022-07-25T03:16:35.402Z,27.27
2022-07-25T03:17:06.970Z,27.28
2022-07-25T03:17:38.506Z,27.27
2022-07-25T03:18:09.944Z,27.28
2022-07-25T03:18:45.372Z,27.25
2022-07-25T03:19:16.809Z,27.26
2022-07-25T03:19:48.230Z,27.26
2022-07-25T03:20:19.655Z,27.26
2022-07-25T03:20:51.089Z,27.26
2022-07-25T03:21:22.525Z,27.26
2022-07-25T03:21:53.957Z,27.24
2022-07-25T03:22:25.380Z,27.25
2022-07-25T03:22:56.868Z,27.24
2022-07-25T03:23:28.447Z,27.24
2022-07-25T03:23:59.989Z,27.25
2022-07-25T03:24:31.417Z,27.24
2022-07-25T03:25:02.845Z,27.24
2022-07-25T03:25:34.263Z,27.24
2022-07-25T03:26:05.698Z,27.25
2022-07-25T03:26:37.124Z,27.24
2022-07-25T03:27:08.560Z,27.25
2022-07-25T03:27:40.100Z,27.24
2022-07-25T03:28:11.528Z,27.24
2022-07-25T03:28:42.960Z,27.24
2022-07-25T03:29:14.389Z,27.24
2022-07-25T03:29:45.811Z,27.24
2022-07-25T03:30:17.238Z,27.23
2022-07-25T03:30:48.671Z,27.23
2022-07-25T03:31:20.127Z,27.22
2022-07-25T03:31:51.631Z,27.22
2022-07-25T03:32:23.145Z,27.23
2022-07-25T03:32:54.672Z,27.22
2022-07-25T03:33:26.100Z,27.23
2022-07-25T03:33:57.533Z,27.22
2022-07-25T03:34:28.955Z,27.22
2022-07-25T03:35:00.388Z,27.22
2022-07-25T03:35:31.821Z,27.21
2022-07-25T03:36:03.249Z,27.21
2022-07-25T03:36:34.686Z,27.19
2022-07-25T03:37:06.125Z,27.21
2022-07-25T03:37:37.556Z,27.21
2022-07-25T03:38:09.030Z,27.20
2022-07-25T03:38:40.470Z,27.20
2022-07-25T03:39:11.901Z,27.20
2022-07-25T03:39:43.323Z,27.20
2022-07-25T03:40:14.753Z,27.19
2022-07-25T03:40:47.488Z,27.19
2022-07-25T03:41:18.916Z,27.19
2022-07-25T03:41:50.345Z,27.19
2022-07-25T03:42:26.499Z,27.19
2022-07-25T03:42:58.240Z,27.18
2022-07-25T03:43:29.754Z,27.19
2022-07-25T03:44:01.186Z,27.19
2022-07-25T03:44:32.612Z,27.18
2022-07-25T03:45:04.037Z,27.19
2022-07-25T03:45:35.512Z,27.18
2022-07-25T03:46:07.039Z,27.18
2022-07-25T03:46:38.573Z,27.18
2022-07-25T03:47:10.001Z,27.18
2022-07-25T03:47:52.173Z,27.18
2022-07-25T03:48:23.673Z,27.18
2022-07-25T03:48:55.395Z,27.17
2022-07-25T03:49:26.952Z,27.17
2022-07-25T03:49:58.386Z,27.17
2022-07-25T03:50:29.819Z,27.17
2022-07-25T03:51:06.421Z,27.16
2022-07-25T03:51:38.229Z,27.16
2022-07-25T03:52:09.682Z,27.16
2022-07-25T03:52:41.111Z,27.16
2022-07-25T03:53:12.538Z,27.16
2022-07-25T03:53:43.968Z,27.16
2022-07-25T03:54:15.496Z,27.17
2022-07-25T03:54:46.938Z,27.15
2022-07-25T03:55:18.367Z,27.15
2022-07-25T03:55:49.853Z,27.16
2022-07-25T03:56:21.313Z,27.16
2022-07-25T03:56:52.745Z,27.16
2022-07-25T03:57:24.171Z,27.17
2022-07-25T03:57:55.610Z,27.16
2022-07-25T03:58:27.052Z,27.15
2022-07-25T03:58:58.522Z,27.15
2022-07-25T03:59:31.009Z,27.15
2022-07-25T04:00:02.455Z,27.14
2022-07-25T04:00:33.904Z,27.15
2022-07-25T04:01:05.489Z,27.15
2022-07-25T04:01:42.133Z,27.15
2022-07-25T04:02:13.657Z,27.14
2022-07-25T04:02:45.311Z,27.13
2022-07-25T04:03:16.793Z,27.12
2022-07-25T04:03:48.237Z,27.13
2022-07-25T04:04:19.751Z,27.13
2022-07-25T04:04:51.182Z,27.12
2022-07-25T04:05:22.609Z,27.13
2022-07-25T04:05:54.048Z,27.12
2022-07-25T04:06:25.479Z,27.13
2022-07-25T04:06:56.915Z,27.13
2022-07-25T04:07:28.345Z,27.12
2022-07-25T04:07:59.765Z,27.11
2022-07-25T04:08:31.197Z,27.11
2022-07-25T04:09:02.633Z,27.11
2022-07-25T04:09:34.142Z,27.10
2022-07-25T04:10:06.428Z,27.11
2022-07-25T04:10:37.869Z,27.11
2022-07-25T04:11:09.303Z,27.11
2022-07-25T04:11:40.738Z,27.10
2022-07-25T04:12:12.159Z,27.11
2022-07-25T04:12:43.592Z,27.11
2022-07-25T04:13:15.025Z,27.10
2022-07-25T04:13:46.452Z,27.11
2022-07-25T04:14:17.875Z,27.10
2022-07-25T04:14:49.415Z,27.10
2022-07-25T04:15:20.851Z,27.10
2022-07-25T04:15:52.277Z,27.09
2022-07-25T04:16:23.963Z,27.08
2022-07-25T04:16:55.653Z,27.09
2022-07-25T04:17:27.145Z,27.10
2022-07-25T04:17:58.568Z,27.09
2022-07-25T04:18:30.000Z,27.09
2022-07-25T04:19:05.085Z,27.09
2022-07-25T04:19:37.746Z,27.08
2022-07-25T04:20:09.298Z,27.10
2022-07-25T04:20:40.721Z,27.09
2022-07-25T04:21:12.158Z,27.09
2022-07-25T04:21:43.585Z,27.08
2022-07-25T04:22:15.022Z,27.08
2022-07-25T04:22:47.069Z,27.09
2022-07-25T04:23:18.697Z,27.09
2022-07-25T04:23:50.128Z,27.09
2022-07-25T04:24:21.561Z,27.09
2022-07-25T04:24:53.048Z,27.08
2022-07-25T04:25:24.472Z,27.09
2022-07-25T04:25:55.993Z,27.08
2022-07-25T04:26:27.419Z,27.08
2022-07-25T04:26:58.844Z,27.08
2022-07-25T04:27:30.263Z,27.08
2022-07-25T04:28:01.696Z,27.08
2022-07-25T04:28:33.120Z,27.08
2022-07-25T04:29:04.569Z,27.07
2022-07-25T04:29:36.005Z,27.07
2022-07-25T04:30:07.529Z,27.07
2022-07-25T04:30:38.961Z,27.06
2022-07-25T04:31:10.401Z,27.06
2022-07-25T04:31:41.918Z,27.07
2022-07-25T04:32:13.432Z,27.08
2022-07-25T04:32:44.960Z,27.08
2022-07-25T04:33:16.384Z,27.06
2022-07-25T04:33:47.838Z,27.07
2022-07-25T04:34:19.273Z,27.08
2022-07-25T04:34:50.709Z,27.07
2022-07-25T04:35:22.194Z,27.08
2022-07-25T04:35:53.616Z,27.07
2022-07-25T04:36:25.046Z,27.08
2022-07-25T04:36:56.473Z,27.07
2022-07-25T04:37:27.899Z,27.07
2022-07-25T04:37:59.323Z,27.07
2022-07-25T04:38:30.769Z,27.06
2022-07-25T04:39:02.279Z,27.06
2022-07-25T04:39:33.716Z,27.05
2022-07-25T04:40:05.233Z,27.05
2022-07-25T04:40:36.660Z,27.06
2022-07-25T04:41:08.093Z,27.05
2022-07-25T04:41:39.525Z,27.04
2022-07-25T04:42:10.965Z,27.07
2022-07-25T04:42:42.400Z,27.06
2022-07-25T04:43:13.833Z,27.04
2022-07-25T04:43:48.711Z,27.04
2022-07-25T04:44:20.515Z,27.05
2022-07-25T04:44:51.940Z,27.04
2022-07-25T04:45:23.590Z,27.04
2022-07-25T04:45:55.110Z,27.03
2022-07-25T04:46:26.580Z,27.04
2022-07-25T04:46:58.015Z,27.04
2022-07-25T04:47:29.448Z,27.04
2022-07-25T04:48:00.899Z,27.04
2022-07-25T04:48:32.380Z,27.04
2022-07-25T04:49:03.872Z,27.04
2022-07-25T04:49:35.361Z,27.03
2022-07-25T04:50:06.798Z,27.04
2022-07-25T04:50:38.272Z,27.04
2022-07-25T04:51:09.696Z,27.04
2022-07-25T04:51:41.134Z,27.04
2022-07-25T04:52:12.560Z,27.04
2022-07-25T04:52:43.983Z,27.04
2022-07-25T04:53:15.414Z,27.05
2022-07-25T04:53:46.848Z,27.04
2022-07-25T04:54:18.284Z,27.04
2022-07-25T04:54:49.713Z,27.03
2022-07-25T04:55:21.132Z,27.05
2022-07-25T04:55:52.627Z,27.03
2022-07-25T04:56:24.077Z,27.04
2022-07-25T04:56:55.516Z,27.03
2022-07-25T04:57:26.941Z,27.03
2022-07-25T04:57:58.366Z,27.03
2022-07-25T04:58:29.798Z,27.03
2022-07-25T04:59:06.452Z,27.03
2022-07-25T04:59:38.352Z,27.03
2022-07-25T05:00:09.786Z,27.03
2022-07-25T05:00:41.348Z,27.04
2022-07-25T05:01:12.955Z,27.04
2022-07-25T05:01:44.437Z,27.03
2022-07-25T05:02:15.992Z,27.03
2022-07-25T05:02:47.469Z,27.03
2022-07-25T05:03:18.910Z,27.03
2022-07-25T05:03:50.854Z,27.03
2022-07-25T05:04:22.354Z,27.04
2022-07-25T05:04:53.788Z,27.04
2022-07-25T05:05:25.258Z,27.04
2022-07-25T05:05:56.697Z,27.04
2022-07-25T05:06:28.134Z,27.03
2022-07-25T05:06:59.609Z,27.04
2022-07-25T05:07:31.046Z,27.04
2022-07-25T05:08:02.481Z,27.04
2022-07-25T05:08:33.908Z,27.03
2022-07-25T05:09:06.273Z,27.03
2022-07-25T05:09:37.709Z,27.03
2022-07-25T05:10:09.137Z,27.02
2022-07-25T05:10:40.639Z,27.04
2022-07-25T05:11:12.065Z,27.02
2022-07-25T05:11:47.887Z,27.03
2022-07-25T05:12:20.977Z,27.02
2022-07-25T05:12:52.401Z,27.03
2022-07-25T05:13:23.832Z,27.03
2022-07-25T05:13:55.263Z,27.03
2022-07-25T05:14:26.696Z,27.02
2022-07-25T05:14:58.129Z,27.04
2022-07-25T05:15:29.566Z,27.04
2022-07-25T05:16:01.113Z,27.03
2022-07-25T05:16:32.647Z,27.03
2022-07-25T05:17:04.119Z,27.03
2022-07-25T05:17:35.547Z,27.03
2022-07-25T05:18:06.978Z,27.03
2022-07-25T05:18:38.409Z,27.03
2022-07-25T05:19:09.851Z,27.02
2022-07-25T05:19:41.281Z,27.02
2022-07-25T05:20:12.764Z,27.03
2022-07-25T05:20:44.289Z,27.02
2022-07-25T05:21:15.712Z,27.02
2022-07-25T05:21:47.158Z,27.02
2022-07-25T05:22:18.921Z,27.01
2022-07-25T05:22:50.356Z,27.01
2022-07-25T05:23:21.794Z,27.02
2022-07-25T05:23:53.252Z,27.02
2022-07-25T05:24:24.686Z,27.02
2022-07-25T05:24:56.117Z,27.02
2022-07-25T05:25:27.561Z,27.02
2022-07-25T05:25:59.068Z,27.02
2022-07-25T05:26:30.497Z,27.03
2022-07-25T05:27:01.927Z,27.02
2022-07-25T05:27:33.350Z,27.01
2022-07-25T05:28:04.784Z,27.02
2022-07-25T05:28:36.213Z,27.03
2022-07-25T05:29:07.637Z,27.03
2022-07-25T05:29:39.130Z,27.02
2022-07-25T05:30:10.564Z,27.01
2022-07-25T05:30:42.006Z,27.02
2022-07-25T05:31:13.499Z,27.03
2022-07-25T05:31:45.026Z,27.03
2022-07-25T05:32:16.526Z,27.03
2022-07-25T05:32:47.973Z,27.02
2022-07-25T05:33:20.235Z,27.03
2022-07-25T05:33:51.660Z,27.02
2022-07-25T05:34:23.089Z,27.03
2022-07-25T05:34:54.521Z,27.03
2022-07-25T05:35:25.947Z,27.03
2022-07-25T05:35:57.379Z,27.03
2022-07-25T05:36:28.853Z,27.03
2022-07-25T05:37:00.278Z,27.03
2022-07-25T05:37:31.719Z,27.03
2022-07-25T05:38:03.251Z,27.04
2022-07-25T05:38:34.743Z,27.04
2022-07-25T05:39:06.168Z,27.04
2022-07-25T05:39:37.607Z,27.05
2022-07-25T05:40:09.037Z,27.05
2022-07-25T05:40:40.471Z,27.04
2022-07-25T05:41:11.905Z,27.06
2022-07-25T05:41:43.393Z,27.06
2022-07-25T05:42:14.815Z,27.04
2022-07-25T05:42:46.269Z,27.06
2022-07-25T05:43:17.705Z,27.05
2022-07-25T05:43:49.132Z,27.05
2022-07-25T05:44:20.565Z,27.05
2022-07-25T05:44:52.010Z,27.04
2022-07-25T05:45:23.435Z,27.05
2022-07-25T05:45:54.860Z,27.07
2022-07-25T05:46:26.834Z,27.05
2022-07-25T05:46:59.158Z,27.06
2022-07-25T05:47:31.222Z,27.05
2022-07-25T05:48:03.284Z,27.05
2022-07-25T05:48:34.863Z,27.05
2022-07-25T05:49:06.374Z,27.04
2022-07-25T05:49:37.876Z,27.05
2022-07-25T05:50:09.301Z,27.05
2022-07-25T05:50:40.749Z,27.05
2022-07-25T05:51:12.181Z,27.05
2022-07-25T05:51:43.612Z,27.05
2022-07-25T05:52:15.106Z,27.05
2022-07-25T05:52:46.542Z,27.06
2022-07-25T05:53:17.977Z,27.06
2022-07-25T05:53:49.516Z,27.06
2022-07-25T05:54:20.980Z,27.07
2022-07-25T05:54:52.408Z,27.05
2022-07-25T05:55:23.833Z,27.05
2022-07-25T05:55:55.277Z,27.04
2022-07-25T05:56:26.705Z,27.06
2022-07-25T05:56:58.144Z,27.06
2022-07-25T05:57:29.677Z,27.06
2022-07-25T05:58:02.595Z,27.06
2022-07-25T05:58:34.097Z,27.07
2022-07-25T05:59:05.530Z,27.05
2022-07-25T05:59:36.959Z,27.06
2022-07-25T06:00:08.391Z,27.05
2022-07-25T06:00:39.825Z,27.05
2022-07-25T06:01:11.258Z,27.06
2022-07-25T06:01:42.757Z,27.05
2022-07-25T06:02:14.585Z,27.06
2022-07-25T06:02:46.298Z,27.05
2022-07-25T06:03:17.859Z,27.05
2022-07-25T06:03:49.328Z,27.05
2022-07-25T06:04:24.130Z,27.05
2022-07-25T06:04:58.602Z,27.05
2022-07-25T06:05:30.053Z,27.05
2022-07-25T06:06:01.485Z,27.05
2022-07-25T06:06:32.922Z,27.06
2022-07-25T06:07:04.352Z,27.06
2022-07-25T06:07:35.797Z,27.07
2022-07-25T06:08:07.309Z,27.06
2022-07-25T06:08:38.732Z,27.08
2022-07-25T06:09:10.170Z,27.07
2022-07-25T06:09:41.811Z,27.08
2022-07-25T06:10:13.331Z,27.09
2022-07-25T06:10:44.792Z,27.09
2022-07-25T06:11:16.578Z,27.09
2022-07-25T06:11:51.109Z,27.09
2022-07-25T06:12:29.597Z,27.10
2022-07-25T06:13:01.867Z,27.11
2022-07-25T06:13:33.292Z,27.11
2022-07-25T06:14:06.283Z,27.11
2022-07-25T06:14:41.151Z,27.11
2022-07-25T06:15:22.219Z,27.12
2022-07-25T06:15:54.613Z,27.13
2022-07-25T06:16:26.198Z,27.13
2022-07-25T06:16:57.635Z,27.13
2022-07-25T06:17:32.373Z,27.14
2022-07-25T06:18:04.312Z,27.15
2022-07-25T06:18:35.740Z,27.15
2022-07-25T06:19:07.177Z,27.15
2022-07-25T06:19:38.606Z,27.16
2022-07-25T06:20:10.044Z,27.17
2022-07-25T06:20:41.482Z,27.17
2022-07-25T06:21:12.936Z,27.18
2022-07-25T06:21:44.368Z,27.19
2022-07-25T06:22:15.800Z,27.18
2022-07-25T06:22:47.229Z,27.19
2022-07-25T06:23:18.775Z,27.19
2022-07-25T06:23:50.205Z,27.19
2022-07-25T06:24:21.639Z,27.20
2022-07-25T06:24:53.074Z,27.21
2022-07-25T06:25:24.522Z,27.21
2022-07-25T06:25:55.958Z,27.21
2022-07-25T06:26:27.387Z,27.22
2022-07-25T06:26:58.833Z,27.22
2022-07-25T06:27:30.266Z,27.22
2022-07-25T06:28:01.701Z,27.24
2022-07-25T06:28:33.177Z,27.24
2022-07-25T06:29:04.606Z,27.24
2022-07-25T06:29:36.032Z,27.25
2022-07-25T06:30:18.692Z,27.25
2022-07-25T06:30:50.973Z,27.25
2022-07-25T06:31:22.477Z,27.27
2022-07-25T06:31:53.973Z,27.27
2022-07-25T06:32:25.420Z,27.27
2022-07-25T06:32:56.858Z,27.28
2022-07-25T06:33:28.509Z,27.29
2022-07-25T06:34:00.001Z,27.30
2022-07-25T06:34:31.441Z,27.30
2022-07-25T06:35:02.868Z,27.30
2022-07-25T06:35:34.308Z,27.31
2022-07-25T06:36:05.740Z,27.32
2022-07-25T06:36:37.173Z,27.32
2022-07-25T06:37:08.601Z,27.32
2022-07-25T06:37:40.034Z,27.33
2022-07-25T06:38:11.786Z,27.33
2022-07-25T06:38:43.335Z,27.34
2022-07-25T06:39:14.769Z,27.33
2022-07-25T06:39:46.417Z,27.36
2022-07-25T06:40:18.073Z,27.36
2022-07-25T06:40:49.511Z,27.37
2022-07-25T06:41:20.946Z,27.37
2022-07-25T06:41:52.387Z,27.38
2022-07-25T06:42:23.825Z,27.39
2022-07-25T06:42:55.260Z,27.40
2022-07-25T06:43:26.689Z,27.40
2022-07-25T06:43:58.166Z,27.41
2022-07-25T06:44:29.601Z,27.41
2022-07-25T06:45:01.024Z,27.41
2022-07-25T06:45:32.486Z,27.42
2022-07-25T06:46:03.910Z,27.43
2022-07-25T06:46:35.437Z,27.44
2022-07-25T06:47:07.018Z,27.44
2022-07-25T06:47:38.476Z,27.44
2022-07-25T06:48:09.908Z,27.45